createdAt,value
2022-12-14T00:02:11.231Z,101264.28
2022-12-14T00:07:04.413Z,101310.72
2022-12-14T00:11:57.635Z,101295.34
2022-12-14T00:16:53.124Z,101316.56
2022-12-14T00:21:47.282Z,101303.56
2022-12-14T00:26:42.607Z,101249.47
2022-12-14T00:31:36.564Z,101279.69
2022-12-14T00:36:32.268Z,101262.78
2022-12-14T00:41:25.509Z,101298.38
2022-12-14T00:46:19.277Z,101313.72
2022-12-14T00:51:14.943Z,101181.91
2022-12-14T00:56:10.331Z,101167.66
2022-12-14T01:01:08.257Z,101076.31
2022-12-14T01:11:33.276Z,101302.09
2022-12-14T01:16:26.638Z,101208.97
2022-12-14T01:21:22.141Z,101209.78
2022-12-14T01:26:16.842Z,101131.16
2022-12-14T01:31:13.789Z,101205.56
2022-12-14T01:36:45.983Z,101289.31
2022-12-14T01:41:43.347Z,101047.75
2022-12-14T01:46:44.151Z,101017.59
2022-12-14T01:51:59.870Z,101303.84
2022-12-14T01:56:55.434Z,101296.25
2022-12-14T02:01:55.284Z,101056.88
2022-12-14T02:06:54.173Z,101199.69
2022-12-14T02:11:57.142Z,101268.28
2022-12-14T02:16:54.423Z,101110.88
2022-12-14T02:22:15.352Z,101286.59
2022-12-14T02:27:39.471Z,101266.91
2022-12-14T02:32:51.477Z,101201.75
2022-12-14T02:37:55.532Z,101130.72
2022-12-14T02:43:03.094Z,101283.84
2022-12-14T02:48:02.835Z,101006.66
2022-12-14T02:53:06.293Z,101277.28
2022-12-14T02:58:03.045Z,101235.00
2022-12-14T03:02:59.901Z,101242.72
2022-12-14T03:07:57.028Z,101276.53
2022-12-14T03:12:55.739Z,101239.28
2022-12-14T03:17:52.776Z,101087.88
2022-12-14T03:22:56.591Z,101185.84
2022-12-14T03:27:54.921Z,101174.00
2022-12-14T03:32:50.982Z,101198.50
2022-12-14T03:37:58.284Z,101253.47
2022-12-14T03:43:35.649Z,101198.41
2022-12-14T03:48:51.558Z,101245.69
2022-12-14T03:53:54.100Z,101030.09
2022-12-14T03:58:57.681Z,101254.97
2022-12-14T04:03:56.553Z,101251.59
2022-12-14T04:08:59.692Z,101097.72
2022-12-14T04:14:20.137Z,101033.38
2022-12-14T04:19:21.228Z,101178.78
2022-12-14T04:24:40.847Z,101232.72
2022-12-14T04:30:05.391Z,101172.59
2022-12-14T04:35:04.079Z,100912.31
2022-12-14T04:40:03.950Z,101225.94
2022-12-14T04:45:03.925Z,101231.88
2022-12-14T04:50:04.702Z,100974.00
2022-12-14T04:55:06.031Z,100975.75
2022-12-14T05:00:01.615Z,101002.72
2022-12-14T05:05:00.985Z,100977.34
2022-12-14T05:09:58.623Z,101216.56
2022-12-14T05:15:00.453Z,101112.56
2022-12-14T05:19:57.423Z,101104.88
2022-12-14T05:24:51.281Z,101191.31
2022-12-14T05:29:44.768Z,100900.47
2022-12-14T05:34:39.558Z,101165.91
2022-12-14T05:39:33.011Z,101219.25
2022-12-14T05:44:26.332Z,101016.53
2022-12-14T05:49:19.691Z,101202.63
2022-12-14T05:54:19.215Z,101242.19
2022-12-14T05:59:16.020Z,101231.31
2022-12-14T06:04:09.478Z,101008.06
2022-12-14T06:09:02.918Z,101254.03
2022-12-14T06:13:57.638Z,101169.44
2022-12-14T06:18:55.224Z,101261.63
2022-12-14T06:23:51.140Z,101177.72
2022-12-14T06:28:45.452Z,101171.81
2022-12-14T06:33:43.012Z,101040.00
2022-12-14T06:38:51.948Z,100982.34
2022-12-14T06:44:13.399Z,101164.91
2022-12-14T07:01:21.258Z,101059.44
2022-12-14T07:13:45.796Z,101235.91
2022-12-14T07:18:54.846Z,101008.50
2022-12-14T07:23:56.659Z,101229.66
2022-12-14T07:28:52.661Z,101214.38
2022-12-14T07:33:48.337Z,101216.78
2022-12-14T07:38:43.141Z,101242.94
2022-12-14T07:43:36.953Z,101247.53
2022-12-14T07:48:45.292Z,101260.72
2022-12-14T07:53:40.240Z,101169.28
2022-12-14T07:58:34.017Z,101152.22
2022-12-14T08:03:27.646Z,101230.59
2022-12-14T08:08:24.555Z,101265.84
2022-12-14T08:13:17.778Z,101271.69
2022-12-14T08:18:11.004Z,101275.06
2022-12-14T08:23:07.266Z,101260.44
2022-12-14T08:28:02.885Z,101268.88
2022-12-14T08:32:57.337Z,101172.31
2022-12-14T08:38:03.982Z,101213.47
2022-12-14T08:42:57.331Z,101256.44
2022-12-14T08:47:51.869Z,101193.91
2022-12-14T08:52:50.671Z,101257.81
2022-12-14T08:57:46.038Z,101215.19
2022-12-14T09:02:39.764Z,101160.03
2022-12-14T09:07:37.429Z,101134.84
2022-12-14T09:12:31.116Z,101212.09
2022-12-14T09:17:29.494Z,101115.44
2022-12-14T09:22:22.998Z,101159.09
2022-12-14T09:27:17.974Z,101219.00
2022-12-14T09:32:16.870Z,101203.91
2022-12-14T09:37:10.284Z,101130.53
2022-12-14T09:42:15.272Z,101187.50
2022-12-14T09:47:17.001Z,101193.91
2022-12-14T09:52:17.250Z,101152.72
2022-12-14T09:57:16.082Z,101145.50
2022-12-14T10:02:31.390Z,101088.22
2022-12-14T10:07:34.131Z,101077.34
2022-12-14T10:12:50.447Z,101099.88
2022-12-14T10:18:49.939Z,101194.41
2022-12-14T10:23:39.785Z,101186.97
2022-12-14T10:28:43.161Z,101188.16
2022-12-14T10:33:43.857Z,101124.47
2022-12-14T10:38:46.311Z,101170.53
2022-12-14T10:43:49.523Z,101107.53
2022-12-14T10:48:52.494Z,101055.81
2022-12-14T10:53:50.852Z,101092.41
2022-12-14T10:58:46.781Z,101112.72
2022-12-14T11:03:53.277Z,101008.19
2022-12-14T11:08:49.029Z,101083.88
2022-12-14T11:13:49.519Z,100993.59
2022-12-14T11:18:42.797Z,101076.78
2022-12-14T11:23:40.588Z,101105.78
2022-12-14T11:28:38.988Z,101072.97
2022-12-14T11:33:37.618Z,101034.53
2022-12-14T11:38:31.809Z,100956.63
2022-12-14T11:43:34.109Z,100962.47
2022-12-14T11:48:29.281Z,101038.28
2022-12-14T11:54:16.816Z,100897.75
2022-12-14T11:59:24.478Z,101012.25
2022-12-14T12:04:18.996Z,101064.31
2022-12-14T12:09:26.571Z,101022.59
2022-12-14T12:14:28.730Z,101062.34
2022-12-14T12:19:28.513Z,101057.25
2022-12-14T12:24:25.328Z,101003.13
2022-12-14T12:29:27.185Z,101026.75
2022-12-14T12:34:25.917Z,101045.03
2022-12-14T12:39:25.423Z,101048.41
2022-12-14T12:44:29.044Z,101030.88
2022-12-14T12:49:23.194Z,101050.50
2022-12-14T12:54:24.912Z,101030.22
2022-12-14T12:59:21.369Z,101035.22
2022-12-14T13:04:27.883Z,101068.28
2022-12-14T13:09:34.456Z,100998.47
2022-12-14T13:14:33.272Z,101029.22
2022-12-14T13:19:54.883Z,101035.44
2022-12-14T13:24:58.885Z,101009.94
2022-12-14T13:30:05.605Z,101039.41
2022-12-14T13:35:16.118Z,101040.53
2022-12-14T13:40:54.439Z,101014.38
2022-12-14T13:45:50.164Z,101041.53
2022-12-14T13:50:54.202Z,100988.63
2022-12-14T13:55:56.738Z,101025.75
2022-12-14T14:01:04.277Z,100991.28
2022-12-14T14:06:02.158Z,100891.22
2022-12-14T14:11:20.579Z,101007.16
2022-12-14T14:16:28.402Z,101022.34
2022-12-14T14:22:06.177Z,101025.75
2022-12-14T14:27:01.703Z,101013.09
2022-12-14T14:32:00.260Z,100969.31
2022-12-14T14:36:55.570Z,100957.47
2022-12-14T14:41:53.567Z,100909.69
2022-12-14T14:46:50.788Z,100994.94
2022-12-14T14:51:44.285Z,100893.44
2022-12-14T14:56:40.202Z,100883.41
2022-12-14T15:01:33.799Z,100839.13
2022-12-14T15:06:30.291Z,100936.63
2022-12-14T15:11:28.011Z,100908.28
2022-12-14T15:17:00.664Z,100867.22
2022-12-14T15:22:00.750Z,100874.53
2022-12-14T15:26:57.406Z,100875.38
2022-12-14T15:32:00.828Z,100890.16
2022-12-14T15:36:54.980Z,100923.94
2022-12-14T15:42:02.446Z,100873.47
2022-12-14T15:47:03.499Z,100838.25
2022-12-14T15:52:01.013Z,100912.66
2022-12-14T15:56:57.126Z,100902.22
2022-12-14T16:01:58.950Z,100733.91
2022-12-14T16:07:08.130Z,100873.66
2022-12-14T16:12:09.054Z,100890.81
2022-12-14T16:17:04.484Z,100893.59
2022-12-14T16:22:24.676Z,100757.88
2022-12-14T16:27:21.275Z,100887.41
2022-12-14T16:32:17.627Z,100873.56
2022-12-14T16:37:34.590Z,100862.34
2022-12-14T16:42:32.919Z,100893.22
2022-12-14T16:47:45.785Z,100893.09
2022-12-14T16:52:41.850Z,100850.84
2022-12-14T16:57:41.536Z,100833.22
2022-12-14T17:02:40.612Z,100863.75
2022-12-14T17:07:36.470Z,100842.63
2022-12-14T17:12:30.012Z,100834.19
2022-12-14T17:17:33.374Z,100914.16
2022-12-14T17:22:30.002Z,100866.75
2022-12-14T17:27:26.796Z,100879.53
2022-12-14T17:32:27.066Z,100809.16
2022-12-14T17:37:22.384Z,100911.56
2022-12-14T17:42:18.244Z,100883.91
2022-12-14T17:47:14.175Z,100919.94
2022-12-14T17:52:16.976Z,100821.47
2022-12-14T17:57:17.113Z,100794.38
2022-12-14T18:02:28.208Z,100691.88
2022-12-14T18:07:23.217Z,100681.56
2022-12-14T18:12:25.010Z,100724.38
2022-12-14T18:17:18.816Z,100887.78
2022-12-14T18:22:14.407Z,100848.00
2022-12-14T18:27:09.610Z,100722.31
2022-12-14T18:32:03.392Z,100874.59
2022-12-14T18:36:59.693Z,100755.84
2022-12-14T18:41:52.996Z,100761.47
2022-12-14T18:46:50.206Z,100838.47
2022-12-14T18:51:44.109Z,100820.63
2022-12-14T18:56:38.093Z,100811.91
2022-12-14T19:01:31.553Z,100845.09
2022-12-14T19:06:44.228Z,100573.81
2022-12-14T19:11:42.053Z,100624.22
2022-12-14T19:16:45.732Z,100736.13
2022-12-14T19:21:41.763Z,100745.91
2022-12-14T19:26:35.141Z,100780.44
2022-12-14T19:31:34.918Z,100654.44
2022-12-14T19:36:29.988Z,100559.97
2022-12-14T19:41:25.007Z,100728.91
2022-12-14T19:46:23.226Z,100721.56
2022-12-14T19:51:17.430Z,100720.34
2022-12-14T19:56:11.628Z,100663.22
2022-12-14T20:01:11.103Z,100574.91
2022-12-14T20:06:06.044Z,100542.13
2022-12-14T20:10:59.725Z,100691.44
2022-12-14T20:16:02.523Z,100689.59
2022-12-14T20:21:07.741Z,100658.75
2022-12-14T20:26:11.652Z,100700.78
2022-12-14T20:31:12.043Z,100668.69
2022-12-14T20:36:11.418Z,100703.25
2022-12-14T20:41:06.262Z,100709.25
2022-12-14T20:46:07.028Z,100633.09
2022-12-14T20:51:01.694Z,100611.50
2022-12-14T20:55:56.920Z,100496.81
2022-12-14T21:06:04.448Z,100680.03
2022-12-14T21:11:22.452Z,100512.63
2022-12-14T21:16:20.093Z,100583.28
2022-12-14T21:21:13.378Z,100583.28
2022-12-14T21:26:09.647Z,100443.31
2022-12-14T21:31:09.431Z,100496.44
2022-12-14T21:36:09.695Z,100511.16
2022-12-14T21:41:21.344Z,100490.03
2022-12-14T21:46:25.500Z,100524.38
2022-12-14T21:51:33.459Z,100560.94
2022-12-14T21:56:48.976Z,100581.34
2022-12-14T22:01:46.745Z,100371.06
2022-12-14T22:06:40.443Z,100372.81
2022-12-14T22:11:39.430Z,100352.47
2022-12-14T22:16:34.711Z,100528.34
2022-12-14T22:21:30.828Z,100419.13
2022-12-14T22:26:24.712Z,100469.22
2022-12-14T22:31:18.231Z,100513.28
2022-12-14T22:36:15.131Z,100337.47
2022-12-14T22:41:10.306Z,100280.03
2022-12-14T22:46:08.159Z,100394.84
2022-12-14T22:51:02.550Z,100467.84
2022-12-14T22:55:58.693Z,100383.53
2022-12-14T23:00:54.329Z,100331.19
2022-12-14T23:05:47.880Z,100462.09
2022-12-14T23:10:58.604Z,100469.13
2022-12-14T23:16:10.814Z,100449.41
2022-12-14T23:21:29.248Z,100325.66
2022-12-14T23:26:42.630Z,100367.13
2022-12-14T23:31:55.863Z,100428.63
2022-12-14T23:37:06.847Z,100406.28
2022-12-14T23:42:20.192Z,100367.06
2022-12-14T23:47:32.381Z,100126.47
2022-12-14T23:52:45.940Z,100307.38
2022-12-14T23:58:00.135Z,100336.00
